CheckWX is a tool to help pilots better visualize weather data.  It is not intended as a substitute for an official pre-flight weather briefing.

01:55:34 UTC

EFKU TAF
Kuopio Airport
Kuopio / Siilinjärvi, Finland
TAF EFKU 182324Z 1900/1924 17009KT 9999 -SHRA BKN020 BECMG 1900/1902 3000 BR BKN002 TEMPO 1902/1907 0800 FG BKN001 BECMG 1907/1909 9999 NSW BKN005 BECMG 1910/1912 BKN015

Mar-19@
00:00 UTC

Mar-19 @ 00:00 UTC

Mar-20@
00:00 UTC

Mar-20 @ 00:00 UTC

TAF EFKU 182324Z 1900/1924 17009KT 9999 -SHRA BKN020
Wind
  • 170° at 9 KTS
Conditions
Light Rain
Cloud Levels
  • Broken at 2,000' AGL

Mar-19@
00:00 UTC

Mar-19 @ 00:00 UTC

Mar-19@
07:00 UTC

Mar-19 @ 07:00 UTC

BECMG 1900/1902 3000 BR BKN002

Becoming

Becoming Conditions expected by Tue, Mar 19, 2019 @ 02:00 UTC

Wind
  • 170° at 9 KTS
Conditions
Mist
Cloud Levels
  • Broken at 200' AGL

Mar-19@
02:00 UTC

Mar-19 @ 02:00 UTC

Mar-19@
07:00 UTC

Mar-19 @ 07:00 UTC

TEMPO 1902/1907 0800 FG BKN001

Temporary

Temporary Changes expected for less than half the time period

Conditions
Fog
Cloud Levels
  • Broken at 100' AGL

Mar-19@
07:00 UTC

Mar-19 @ 07:00 UTC

Mar-19@
10:00 UTC

Mar-19 @ 10:00 UTC

BECMG 1907/1909 9999 NSW BKN005

Becoming

Becoming Conditions expected by Tue, Mar 19, 2019 @ 09:00 UTC

Wind
  • 170° at 9 KTS
Conditions
No significant weather
Cloud Levels
  • Broken at 500' AGL

Mar-19@
10:00 UTC

Mar-19 @ 10:00 UTC

Mar-20@
00:00 UTC

Mar-20 @ 00:00 UTC

BECMG 1910/1912 BKN015

Becoming

Becoming Conditions expected by Tue, Mar 19, 2019 @ 12:00 UTC

Wind
  • 170° at 9 KTS
Conditions
No significant weather
Cloud Levels
  • Broken at 1,500' AGL